createdAt,value
2017-12-30T00:00:54.187Z,80.65
2017-12-30T00:01:56.082Z,79.99
2017-12-30T00:02:57.937Z,80.18
2017-12-30T00:03:59.796Z,79.99
2017-12-30T00:05:13.948Z,80.08
2017-12-30T00:06:15.843Z,80.18
2017-12-30T00:07:17.739Z,80.27
2017-12-30T00:08:19.623Z,80.08
2017-12-30T00:09:21.436Z,80.46
2017-12-30T00:10:23.246Z,80.65
2017-12-30T00:11:25.137Z,80.46
2017-12-30T00:12:26.989Z,79.99
2017-12-30T00:13:28.853Z,79.99
2017-12-30T00:14:43.016Z,80.08
2017-12-30T00:15:44.911Z,79.99
2017-12-30T00:16:46.805Z,79.90
2017-12-30T00:17:48.677Z,79.52
2017-12-30T00:18:50.505Z,79.52
2017-12-30T00:19:52.339Z,79.52
2017-12-30T00:20:54.233Z,79.99
2017-12-30T00:21:56.124Z,79.99
2017-12-30T00:22:57.993Z,80.18
2017-12-30T00:24:12.158Z,80.18
2017-12-30T00:25:14.045Z,80.27
2017-12-30T00:26:15.940Z,81.51
2017-12-30T00:27:17.828Z,82.17
2017-12-30T00:28:19.657Z,82.45
2017-12-30T00:29:21.491Z,81.70
2017-12-30T00:30:23.381Z,81.03
2017-12-30T00:31:25.254Z,81.13
2017-12-30T00:32:27.150Z,80.75
2017-12-30T00:33:41.282Z,80.65
2017-12-30T00:34:43.147Z,80.46
2017-12-30T00:35:45.044Z,80.46
2017-12-30T00:36:46.897Z,80.18
2017-12-30T00:37:48.706Z,80.18
2017-12-30T00:38:50.538Z,80.18
2017-12-30T00:39:52.431Z,79.43
2017-12-30T00:40:54.334Z,79.52
2017-12-30T00:41:56.217Z,79.56
2017-12-30T00:43:10.390Z,79.90
2017-12-30T00:44:12.247Z,79.52
2017-12-30T00:45:14.118Z,79.56
2017-12-30T00:46:16.000Z,80.04
2017-12-30T00:47:17.791Z,79.47
2017-12-30T00:48:19.598Z,79.56
2017-12-30T00:49:21.453Z,79.33
2017-12-30T00:50:23.316Z,79.66
2017-12-30T00:51:25.181Z,79.75
2017-12-30T00:52:39.318Z,79.66
2017-12-30T00:53:41.172Z,78.90
2017-12-30T00:54:43.058Z,79.18
2017-12-30T00:55:44.940Z,78.71
2017-12-30T00:56:46.755Z,78.80
2017-12-30T00:57:48.570Z,78.67
2017-12-30T00:58:50.459Z,78.80
2017-12-30T00:59:52.341Z,78.99
2017-12-30T01:00:54.223Z,79.18
2017-12-30T01:02:08.365Z,78.90
2017-12-30T01:03:10.251Z,78.61
2017-12-30T01:04:12.110Z,78.71
2017-12-30T01:05:13.993Z,78.76
2017-12-30T01:06:15.813Z,78.58
2017-12-30T01:07:17.629Z,78.76
2017-12-30T01:08:19.499Z,78.58
2017-12-30T01:09:21.356Z,78.67
2017-12-30T01:10:23.219Z,79.05
2017-12-30T01:11:37.353Z,78.76
2017-12-30T01:12:39.223Z,79.14
2017-12-30T01:13:41.087Z,78.95
2017-12-30T01:14:42.954Z,79.33
2017-12-30T01:15:44.771Z,79.80
2017-12-30T01:16:46.563Z,79.43
2017-12-30T01:17:48.428Z,80.18
2017-12-30T01:18:50.309Z,79.99
2017-12-30T01:19:52.192Z,79.99
2017-12-30T01:21:06.319Z,79.71
2017-12-30T01:22:08.180Z,79.71
2017-12-30T01:23:10.041Z,79.90
2017-12-30T01:24:11.924Z,80.08
2017-12-30T01:25:13.720Z,79.43
2017-12-30T01:26:15.537Z,79.43
2017-12-30T01:27:17.417Z,80.08
2017-12-30T01:28:19.283Z,79.90
2017-12-30T01:29:21.161Z,79.80
2017-12-30T01:30:35.291Z,79.61
2017-12-30T01:31:37.150Z,79.90
2017-12-30T01:32:39.032Z,80.37
2017-12-30T01:33:40.897Z,80.37
2017-12-30T01:34:42.711Z,80.08
2017-12-30T01:35:44.506Z,80.18
2017-12-30T01:36:46.374Z,79.80
2017-12-30T01:37:48.259Z,80.27
2017-12-30T01:38:50.145Z,80.37
2017-12-30T01:40:04.296Z,80.18
2017-12-30T01:41:06.157Z,80.18
2017-12-30T01:42:08.041Z,80.13
2017-12-30T01:43:09.904Z,80.18
2017-12-30T01:44:11.723Z,79.66
2017-12-30T01:45:13.544Z,80.04
2017-12-30T01:46:15.429Z,79.75
2017-12-30T01:47:17.310Z,79.66
2017-12-30T01:48:19.175Z,79.37
2017-12-30T01:49:33.325Z,79.18
2017-12-30T01:50:35.182Z,79.37
2017-12-30T01:51:37.046Z,78.80
2017-12-30T01:52:38.928Z,79.09
2017-12-30T01:53:40.742Z,78.52
2017-12-30T01:54:42.539Z,78.71
2017-12-30T01:55:44.400Z,78.99
2017-12-30T01:56:46.282Z,78.71
2017-12-30T01:57:48.138Z,78.71
2017-12-30T01:59:02.269Z,78.71
2017-12-30T02:00:04.132Z,78.14
2017-12-30T02:01:06.015Z,78.23
2017-12-30T02:02:07.900Z,78.33
2017-12-30T02:03:09.695Z,78.42
2017-12-30T02:04:11.493Z,78.14
2017-12-30T02:05:13.372Z,78.14
2017-12-30T02:06:15.234Z,77.39
2017-12-30T02:07:17.096Z,77.29
2017-12-30T02:08:31.237Z,77.39
2017-12-30T02:09:33.115Z,77.10
2017-12-30T02:10:35.024Z,77.20
2017-12-30T02:11:36.867Z,76.72
2017-12-30T02:12:38.668Z,76.63
2017-12-30T02:13:40.476Z,76.63
2017-12-30T02:14:42.351Z,76.34
2017-12-30T02:15:44.230Z,75.87
2017-12-30T02:16:46.091Z,75.68
2017-12-30T02:18:00.240Z,75.96
2017-12-30T02:19:02.099Z,76.15
2017-12-30T02:20:03.956Z,75.87
2017-12-30T02:21:05.815Z,75.87
2017-12-30T02:22:07.615Z,75.31
2017-12-30T02:23:09.417Z,75.87
2017-12-30T02:24:11.300Z,75.68
2017-12-30T02:25:13.177Z,75.96
2017-12-30T02:26:15.042Z,75.78
2017-12-30T02:27:29.196Z,75.91
2017-12-30T02:28:31.076Z,75.53
2017-12-30T02:29:32.934Z,75.53
2017-12-30T02:30:34.802Z,75.72
2017-12-30T02:31:36.619Z,74.96
2017-12-30T02:32:38.412Z,74.96
2017-12-30T02:33:40.275Z,75.24
2017-12-30T02:34:42.136Z,74.77
2017-12-30T02:35:43.993Z,74.77
2017-12-30T02:36:58.119Z,74.96
2017-12-30T02:37:59.980Z,75.34
2017-12-30T02:39:01.842Z,74.96
2017-12-30T02:40:03.723Z,75.31
2017-12-30T02:41:05.521Z,75.62
2017-12-30T02:42:07.316Z,75.81
2017-12-30T02:43:09.173Z,75.43
2017-12-30T02:44:11.033Z,75.24
2017-12-30T02:45:12.896Z,75.24
2017-12-30T02:46:27.048Z,75.34
2017-12-30T02:47:28.925Z,75.02
2017-12-30T02:48:30.792Z,75.12
2017-12-30T02:49:32.655Z,75.31
2017-12-30T02:50:34.475Z,75.15
2017-12-30T02:51:36.267Z,75.68
2017-12-30T02:52:38.153Z,75.49
2017-12-30T02:53:40.006Z,75.34
2017-12-30T02:54:41.889Z,75.05
2017-12-30T02:55:56.036Z,75.34
2017-12-30T02:56:57.898Z,75.24
2017-12-30T02:57:59.759Z,74.96
2017-12-30T02:59:01.644Z,74.96
2017-12-30T03:00:03.464Z,75.49
2017-12-30T03:01:05.256Z,75.31
2017-12-30T03:02:07.118Z,75.21
2017-12-30T03:03:09.004Z,75.21
2017-12-30T03:04:10.838Z,75.31
2017-12-30T03:05:24.994Z,75.21
2017-12-30T03:06:26.875Z,75.21
2017-12-30T03:07:28.757Z,75.68
2017-12-30T03:08:30.638Z,75.78
2017-12-30T03:09:32.459Z,75.78
2017-12-30T03:10:34.249Z,75.96
2017-12-30T03:11:36.118Z,76.06
2017-12-30T03:12:37.998Z,75.68
2017-12-30T03:13:39.881Z,75.87
2017-12-30T03:14:54.031Z,75.96
2017-12-30T03:15:55.890Z,76.72
2017-12-30T03:16:57.750Z,77.67
2017-12-30T03:17:59.632Z,77.76
2017-12-30T03:19:01.432Z,78.05
2017-12-30T03:20:03.250Z,78.23
2017-12-30T03:21:05.131Z,78.33
2017-12-30T03:22:06.991Z,78.23
2017-12-30T03:23:08.875Z,77.67
2017-12-30T03:24:23.025Z,78.14
2017-12-30T03:25:24.887Z,78.33
2017-12-30T03:26:26.772Z,78.14
2017-12-30T03:27:28.635Z,77.76
2017-12-30T03:28:30.432Z,77.58
2017-12-30T03:29:32.224Z,77.58
2017-12-30T03:30:34.086Z,78.80
2017-12-30T03:31:35.944Z,79.18
2017-12-30T03:32:37.807Z,78.80
2017-12-30T03:33:52.003Z,78.71
2017-12-30T03:34:53.863Z,78.52
2017-12-30T03:35:55.743Z,78.33
2017-12-30T03:36:57.628Z,77.95
2017-12-30T03:37:59.447Z,77.20
2017-12-30T03:39:01.266Z,77.29
2017-12-30T03:40:03.122Z,77.67
2017-12-30T03:41:05.000Z,77.20
2017-12-30T03:42:06.838Z,77.39
2017-12-30T03:43:21.019Z,77.01
2017-12-30T03:44:22.877Z,77.20
2017-12-30T03:45:24.756Z,77.29
2017-12-30T03:46:26.640Z,77.76
2017-12-30T03:47:28.439Z,78.14
2017-12-30T03:48:30.260Z,78.14
2017-12-30T03:49:32.145Z,78.52
2017-12-30T03:50:34.029Z,78.33
2017-12-30T03:51:35.909Z,78.71
2017-12-30T03:52:50.083Z,77.86
2017-12-30T03:53:51.941Z,77.20
2017-12-30T03:54:53.803Z,77.86
2017-12-30T03:55:55.660Z,78.42
2017-12-30T03:56:57.481Z,78.23
2017-12-30T03:57:59.296Z,77.86
2017-12-30T03:59:01.160Z,78.14
2017-12-30T04:00:03.021Z,77.86
2017-12-30T04:01:04.882Z,78.33
2017-12-30T04:02:19.038Z,78.56
2017-12-30T04:03:20.920Z,79.13
2017-12-30T04:04:22.805Z,78.08
2017-12-30T04:05:24.686Z,77.33
2017-12-30T04:06:26.485Z,77.33
2017-12-30T04:07:28.309Z,77.70
2017-12-30T04:08:30.190Z,78.18
2017-12-30T04:09:32.055Z,78.18
2017-12-30T04:10:33.939Z,77.42
2017-12-30T04:11:48.088Z,76.95
2017-12-30T04:12:49.947Z,77.04
2017-12-30T04:13:51.811Z,77.42
2017-12-30T04:14:53.689Z,77.04
2017-12-30T04:15:55.487Z,76.95
2017-12-30T04:16:57.279Z,77.14
2017-12-30T04:17:59.138Z,77.42
2017-12-30T04:19:01.001Z,77.61
2017-12-30T04:20:02.880Z,77.70
2017-12-30T04:21:17.016Z,77.42
2017-12-30T04:22:18.901Z,77.23
2017-12-30T04:23:20.777Z,77.89
2017-12-30T04:24:22.638Z,77.42
2017-12-30T04:25:24.431Z,77.99
2017-12-30T04:26:26.231Z,77.89
2017-12-30T04:27:28.094Z,77.70
2017-12-30T04:28:29.974Z,77.42
2017-12-30T04:29:31.833Z,77.70
2017-12-30T04:30:46.033Z,77.89
2017-12-30T04:31:47.886Z,78.08
2017-12-30T04:32:49.749Z,77.23
2017-12-30T04:33:51.615Z,76.67
2017-12-30T04:34:53.426Z,75.81
2017-12-30T04:35:55.224Z,76.76
2017-12-30T04:36:57.079Z,76.67
2017-12-30T04:37:58.941Z,76.76
2017-12-30T04:39:00.822Z,76.29
2017-12-30T04:40:14.952Z,75.81
2017-12-30T04:41:16.813Z,76.67
2017-12-30T04:42:18.695Z,75.72
2017-12-30T04:43:20.561Z,76.00
2017-12-30T04:44:22.380Z,76.48
2017-12-30T04:45:24.178Z,76.95
2017-12-30T04:46:26.044Z,76.95
2017-12-30T04:47:27.922Z,76.67
2017-12-30T04:48:29.784Z,76.00
2017-12-30T04:49:43.982Z,75.62
2017-12-30T04:50:45.843Z,75.62
2017-12-30T04:51:47.729Z,75.91
2017-12-30T04:52:49.591Z,75.91
2017-12-30T04:53:51.390Z,76.48
2017-12-30T04:54:53.210Z,76.67
2017-12-30T04:55:55.093Z,76.19
2017-12-30T04:56:56.973Z,76.00
2017-12-30T04:57:58.832Z,75.91
2017-12-30T04:59:13.035Z,74.96
2017-12-30T05:00:14.913Z,74.68
2017-12-30T05:01:16.777Z,74.58
2017-12-30T05:02:18.639Z,74.58
2017-12-30T05:03:20.457Z,74.58
2017-12-30T05:04:22.254Z,75.24
2017-12-30T05:05:24.137Z,75.43
2017-12-30T05:06:26.017Z,75.62
2017-12-30T05:07:27.874Z,75.72
2017-12-30T05:08:42.025Z,75.72
2017-12-30T05:09:43.889Z,75.62
2017-12-30T05:10:45.771Z,75.72
2017-12-30T05:11:47.653Z,75.91
2017-12-30T05:12:49.453Z,75.81
2017-12-30T05:13:51.271Z,76.86
2017-12-30T05:14:53.148Z,76.57
2017-12-30T05:15:55.013Z,76.57
2017-12-30T05:16:56.931Z,77.04
2017-12-30T05:18:11.002Z,77.61
2017-12-30T05:19:12.862Z,77.14
2017-12-30T05:20:14.924Z,76.76
2017-12-30T05:21:16.785Z,76.19
2017-12-30T05:22:18.586Z,76.00
2017-12-30T05:23:20.381Z,75.72
2017-12-30T05:24:22.261Z,75.91
2017-12-30T05:25:24.126Z,75.62
2017-12-30T05:26:26.009Z,76.00
2017-12-30T05:27:40.159Z,75.91
2017-12-30T05:28:42.017Z,75.34
2017-12-30T05:29:43.878Z,75.05
2017-12-30T05:30:45.738Z,75.34
2017-12-30T05:31:47.552Z,75.53
2017-12-30T05:32:49.398Z,75.34
2017-12-30T05:33:51.280Z,75.15
2017-12-30T05:34:53.135Z,75.62
2017-12-30T05:35:55.002Z,75.72
2017-12-30T05:37:09.154Z,75.81
2017-12-30T05:38:11.015Z,75.62
2017-12-30T05:39:12.898Z,75.91
2017-12-30T05:40:14.756Z,75.53
2017-12-30T05:41:16.563Z,75.53
2017-12-30T05:42:18.383Z,75.15
2017-12-30T05:43:20.263Z,75.34
2017-12-30T05:44:22.127Z,75.34
2017-12-30T05:45:24.008Z,75.62
2017-12-30T05:46:38.155Z,75.62
2017-12-30T05:47:40.022Z,75.91
2017-12-30T05:48:41.904Z,76.10
2017-12-30T05:49:43.785Z,75.72
2017-12-30T05:50:45.579Z,75.34
2017-12-30T05:51:47.379Z,75.53
2017-12-30T05:52:49.262Z,74.87
2017-12-30T05:53:51.150Z,74.58
2017-12-30T05:54:53.000Z,74.68
2017-12-30T05:56:07.133Z,74.96
2017-12-30T05:57:08.998Z,75.72
2017-12-30T05:58:10.878Z,75.91
2017-12-30T05:59:12.741Z,75.72
2017-12-30T06:00:14.565Z,75.81
2017-12-30T06:01:16.358Z,75.91
2017-12-30T06:02:18.243Z,76.00
2017-12-30T06:03:20.126Z,76.19
2017-12-30T06:04:22.008Z,76.86
2017-12-30T06:05:36.140Z,76.95
2017-12-30T06:06:38.021Z,77.70
2017-12-30T06:07:39.882Z,77.80
2017-12-30T06:08:41.787Z,78.18
2017-12-30T06:09:43.570Z,77.42
2017-12-30T06:10:45.370Z,77.51
2017-12-30T06:11:47.302Z,77.80
2017-12-30T06:12:49.108Z,77.33
2017-12-30T06:13:50.972Z,77.89
2017-12-30T06:15:05.105Z,77.89
2017-12-30T06:16:06.959Z,77.33
2017-12-30T06:17:08.824Z,77.42
2017-12-30T06:18:10.703Z,77.33
2017-12-30T06:19:12.507Z,77.70
2017-12-30T06:20:14.307Z,77.89
2017-12-30T06:21:16.184Z,77.89
2017-12-30T06:22:18.041Z,77.23
2017-12-30T06:23:19.906Z,77.51
2017-12-30T06:24:34.060Z,77.33
2017-12-30T06:25:35.939Z,77.70
2017-12-30T06:26:37.799Z,77.70
2017-12-30T06:27:39.661Z,77.99
2017-12-30T06:28:41.462Z,78.46
2017-12-30T06:29:43.274Z,77.99
2017-12-30T06:30:45.137Z,77.89
2017-12-30T06:31:47.000Z,78.46
2017-12-30T06:32:48.883Z,77.80
2017-12-30T06:34:03.012Z,77.42
2017-12-30T06:35:04.870Z,77.42
2017-12-30T06:36:06.731Z,77.99
2017-12-30T06:37:08.612Z,77.80
2017-12-30T06:38:10.427Z,78.18
2017-12-30T06:39:12.228Z,77.89
2017-12-30T06:40:14.105Z,77.89
2017-12-30T06:41:15.967Z,78.23
2017-12-30T06:42:17.850Z,78.05
2017-12-30T06:43:32.011Z,78.52
2017-12-30T06:44:33.886Z,78.33
2017-12-30T06:45:35.747Z,78.90
2017-12-30T06:46:37.611Z,79.47
2017-12-30T06:47:39.410Z,79.28
2017-12-30T06:48:41.210Z,79.28
2017-12-30T06:49:43.092Z,79.37
2017-12-30T06:50:44.950Z,79.94
2017-12-30T06:51:46.806Z,79.37
2017-12-30T06:53:00.943Z,79.32
2017-12-30T06:54:02.824Z,79.50
2017-12-30T06:55:04.690Z,79.32
2017-12-30T06:56:06.572Z,78.56
2017-12-30T06:57:08.366Z,79.13
2017-12-30T06:58:10.166Z,78.56
2017-12-30T06:59:12.029Z,78.56
2017-12-30T07:00:13.887Z,78.56
2017-12-30T07:01:15.748Z,78.42
2017-12-30T07:02:29.904Z,78.61
2017-12-30T07:03:31.767Z,78.90
2017-12-30T07:04:33.650Z,78.61
2017-12-30T07:05:35.515Z,79.18
2017-12-30T07:06:37.315Z,78.99
2017-12-30T07:07:39.134Z,79.32
2017-12-30T07:08:40.995Z,79.66
2017-12-30T07:09:42.863Z,79.50
2017-12-30T07:10:44.725Z,79.50
2017-12-30T07:11:58.879Z,79.03
2017-12-30T07:13:00.779Z,79.60
2017-12-30T07:14:02.625Z,79.88
2017-12-30T07:15:04.512Z,79.79
2017-12-30T07:16:06.335Z,79.79
2017-12-30T07:17:08.157Z,79.79
2017-12-30T07:18:10.047Z,79.79
2017-12-30T07:19:11.910Z,79.69
2017-12-30T07:20:13.797Z,79.69
2017-12-30T07:21:28.004Z,79.03
2017-12-30T07:22:29.866Z,79.22
2017-12-30T07:23:31.756Z,79.50
2017-12-30T07:24:33.640Z,78.85
2017-12-30T07:25:35.443Z,79.03
2017-12-30T07:26:37.267Z,79.03
2017-12-30T07:27:39.155Z,78.56
2017-12-30T07:28:41.040Z,78.65
2017-12-30T07:29:42.902Z,79.03
2017-12-30T07:30:57.052Z,79.03
2017-12-30T07:31:58.917Z,78.85
2017-12-30T07:33:00.775Z,78.94
2017-12-30T07:34:02.637Z,79.13
2017-12-30T07:35:04.443Z,78.94
2017-12-30T07:36:06.263Z,78.56
2017-12-30T07:37:08.150Z,79.32
2017-12-30T07:38:10.039Z,79.50
2017-12-30T07:39:11.902Z,79.79
2017-12-30T07:40:26.034Z,79.41
2017-12-30T07:41:27.900Z,79.69
2017-12-30T07:42:29.791Z,79.69
2017-12-30T07:43:31.674Z,79.69
2017-12-30T07:44:33.480Z,79.88
2017-12-30T07:45:35.303Z,79.88
2017-12-30T07:46:37.191Z,80.17
2017-12-30T07:47:39.076Z,80.07
2017-12-30T07:48:40.942Z,79.69
2017-12-30T07:49:55.097Z,79.32
2017-12-30T07:50:56.956Z,79.13
2017-12-30T07:51:58.828Z,79.22
2017-12-30T07:53:00.710Z,78.94
2017-12-30T07:54:02.512Z,78.56
2017-12-30T07:55:04.316Z,78.85
2017-12-30T07:56:06.206Z,79.03
2017-12-30T07:57:08.088Z,79.50
2017-12-30T07:58:10.003Z,79.45
2017-12-30T07:59:24.123Z,79.45
2017-12-30T08:00:26.030Z,79.55
2017-12-30T08:01:27.870Z,79.83
2017-12-30T08:02:29.733Z,79.45
2017-12-30T08:03:31.537Z,79.07
2017-12-30T08:04:33.334Z,78.98
2017-12-30T08:05:35.204Z,79.07
2017-12-30T08:06:37.092Z,79.26
2017-12-30T08:07:38.967Z,78.88
2017-12-30T08:08:53.103Z,79.17
2017-12-30T08:09:54.970Z,78.59
2017-12-30T08:10:56.833Z,78.41
2017-12-30T08:11:58.704Z,78.12
2017-12-30T08:13:00.538Z,78.22
2017-12-30T08:14:02.358Z,78.88
2017-12-30T08:15:04.246Z,78.88
2017-12-30T08:16:06.108Z,78.22
2017-12-30T08:17:07.976Z,78.50
2017-12-30T08:18:22.129Z,78.50
2017-12-30T08:19:23.994Z,78.59
2017-12-30T08:20:25.865Z,78.03
2017-12-30T08:21:27.751Z,78.50
2017-12-30T08:22:29.578Z,77.65
2017-12-30T08:23:31.399Z,77.65
2017-12-30T08:24:33.266Z,77.65
2017-12-30T08:25:35.130Z,77.27
2017-12-30T08:26:37.018Z,76.99
2017-12-30T08:27:51.176Z,77.65
2017-12-30T08:28:53.063Z,77.56
2017-12-30T08:29:54.951Z,77.84
2017-12-30T08:30:56.818Z,77.27
2017-12-30T08:31:58.643Z,78.03
2017-12-30T08:33:00.446Z,77.46
2017-12-30T08:34:02.336Z,77.46
2017-12-30T08:35:04.231Z,77.22
2017-12-30T08:36:06.108Z,76.93
2017-12-30T08:37:20.269Z,76.04
2017-12-30T08:38:22.483Z,76.32
2017-12-30T08:39:24.356Z,76.70
2017-12-30T08:40:26.233Z,76.80
2017-12-30T08:41:28.057Z,76.23
2017-12-30T08:42:29.867Z,76.61
2017-12-30T08:43:31.749Z,76.42
2017-12-30T08:44:33.616Z,76.61
2017-12-30T08:45:35.530Z,77.03
2017-12-30T08:46:49.762Z,76.99
2017-12-30T08:47:51.686Z,76.74
2017-12-30T08:48:53.623Z,77.03
2017-12-30T08:49:55.555Z,77.12
2017-12-30T08:50:57.384Z,76.93
2017-12-30T08:51:59.188Z,76.65
2017-12-30T08:53:01.054Z,76.46
2017-12-30T08:54:02.927Z,77.22
2017-12-30T08:55:04.811Z,77.31
2017-12-30T08:56:18.949Z,77.31
2017-12-30T08:57:20.808Z,75.79
2017-12-30T08:58:22.679Z,75.04
2017-12-30T08:59:24.548Z,75.42
2017-12-30T09:00:26.360Z,74.85
2017-12-30T09:01:28.182Z,75.42
2017-12-30T09:02:30.051Z,76.04
2017-12-30T09:03:31.937Z,75.57
2017-12-30T09:04:33.805Z,75.95
2017-12-30T09:05:47.967Z,76.04
2017-12-30T09:06:49.860Z,76.61
2017-12-30T09:07:51.850Z,76.32
2017-12-30T09:08:53.711Z,76.80
2017-12-30T09:09:55.501Z,76.99
2017-12-30T09:10:57.312Z,76.80
2017-12-30T09:11:59.201Z,76.89
2017-12-30T09:13:01.096Z,76.99
2017-12-30T09:14:03.002Z,77.18
2017-12-30T09:15:17.143Z,77.08
2017-12-30T09:16:19.030Z,77.18
2017-12-30T09:17:20.947Z,76.80
2017-12-30T09:18:22.845Z,76.32
2017-12-30T09:19:24.759Z,76.99
2017-12-30T09:20:26.626Z,76.93
2017-12-30T09:21:28.574Z,77.03
2017-12-30T09:22:30.519Z,76.93
2017-12-30T09:23:32.419Z,76.46
2017-12-30T09:24:46.661Z,76.08
2017-12-30T09:25:48.600Z,74.95
2017-12-30T09:26:50.575Z,74.98
2017-12-30T09:27:52.531Z,75.07
2017-12-30T09:28:54.433Z,74.32
2017-12-30T09:29:56.305Z,74.13
2017-12-30T09:30:58.221Z,73.94
2017-12-30T09:32:00.088Z,73.65
2017-12-30T09:33:01.974Z,73.94
2017-12-30T09:34:16.150Z,74.03
2017-12-30T09:35:17.989Z,73.75
2017-12-30T09:36:19.813Z,74.03
2017-12-30T09:37:21.653Z,73.84
2017-12-30T09:38:23.552Z,73.65
2017-12-30T09:39:25.510Z,73.18
2017-12-30T09:40:27.416Z,73.75
2017-12-30T09:41:29.231Z,73.46
2017-12-30T09:42:31.029Z,73.46
2017-12-30T09:43:45.195Z,73.27
2017-12-30T09:44:47.058Z,73.94
2017-12-30T09:45:48.931Z,73.46
2017-12-30T09:46:50.816Z,73.94
2017-12-30T09:47:52.656Z,74.37
2017-12-30T09:48:54.479Z,74.47
2017-12-30T09:49:56.388Z,74.95
2017-12-30T09:50:58.273Z,74.75
2017-12-30T09:52:00.157Z,74.75
2017-12-30T09:53:14.300Z,74.85
2017-12-30T09:54:16.227Z,74.75
2017-12-30T09:55:18.197Z,75.04
2017-12-30T09:56:20.097Z,75.32
2017-12-30T09:57:21.954Z,74.75
2017-12-30T09:58:23.804Z,74.95
2017-12-30T09:59:25.688Z,74.85
2017-12-30T10:00:27.559Z,74.95
2017-12-30T10:01:29.510Z,74.85
2017-12-30T10:02:43.671Z,75.42
2017-12-30T10:03:45.557Z,74.95
2017-12-30T10:04:47.425Z,74.85
2017-12-30T10:05:49.318Z,74.95
2017-12-30T10:06:51.127Z,75.23
2017-12-30T10:07:52.956Z,75.32
2017-12-30T10:08:54.843Z,74.95
2017-12-30T10:09:56.715Z,75.70
2017-12-30T10:10:58.602Z,75.70
2017-12-30T10:12:12.790Z,75.36
2017-12-30T10:13:14.681Z,75.17
2017-12-30T10:14:16.569Z,75.04
2017-12-30T10:15:18.512Z,75.79
2017-12-30T10:16:20.345Z,76.08
2017-12-30T10:17:22.177Z,75.98
2017-12-30T10:18:24.065Z,75.79
2017-12-30T10:19:25.964Z,76.17
2017-12-30T10:20:27.862Z,76.65
2017-12-30T10:21:42.023Z,76.65
2017-12-30T10:22:43.912Z,76.55
2017-12-30T10:23:45.777Z,76.74
2017-12-30T10:24:47.653Z,76.78
2017-12-30T10:25:49.447Z,76.31
2017-12-30T10:26:51.296Z,76.03
2017-12-30T10:27:53.177Z,75.64
2017-12-30T10:28:55.062Z,74.88
2017-12-30T10:29:56.925Z,75.17
2017-12-30T10:31:11.058Z,74.69
2017-12-30T10:32:12.929Z,75.17
2017-12-30T10:33:14.822Z,74.98
2017-12-30T10:34:16.686Z,75.02
2017-12-30T10:35:18.498Z,74.54
2017-12-30T10:36:20.299Z,74.16
2017-12-30T10:37:22.166Z,73.97
2017-12-30T10:38:24.031Z,73.31
2017-12-30T10:39:25.898Z,73.12
2017-12-30T10:40:40.061Z,72.84
2017-12-30T10:41:41.926Z,72.74
2017-12-30T10:42:43.793Z,72.27
2017-12-30T10:43:45.666Z,71.80
2017-12-30T10:44:47.477Z,72.08
2017-12-30T10:45:49.308Z,72.08
2017-12-30T10:46:51.408Z,72.08
2017-12-30T10:47:53.238Z,71.89
2017-12-30T10:48:55.128Z,71.98
2017-12-30T10:50:09.292Z,72.08
2017-12-30T10:51:11.194Z,71.80
2017-12-30T10:52:13.075Z,71.70
2017-12-30T10:53:14.980Z,71.80
2017-12-30T10:54:16.793Z,71.73
2017-12-30T10:55:18.607Z,71.83
2017-12-30T10:56:20.498Z,71.73
2017-12-30T10:57:22.369Z,71.83
2017-12-30T10:58:24.264Z,71.36
2017-12-30T10:59:38.417Z,71.45
2017-12-30T11:00:40.287Z,71.17
2017-12-30T11:01:42.176Z,71.17
2017-12-30T11:02:44.063Z,71.55
2017-12-30T11:03:45.892Z,70.78
2017-12-30T11:04:47.726Z,71.55
2017-12-30T11:05:49.623Z,71.17
2017-12-30T11:06:51.483Z,71.17
2017-12-30T11:07:53.340Z,71.22
2017-12-30T11:09:07.576Z,71.51
2017-12-30T11:10:09.411Z,72.17
2017-12-30T11:11:11.284Z,72.08
2017-12-30T11:12:13.175Z,71.89
2017-12-30T11:13:15.006Z,72.55
2017-12-30T11:14:16.840Z,72.74
2017-12-30T11:15:18.735Z,72.55
2017-12-30T11:16:20.594Z,72.84
2017-12-30T11:17:22.481Z,72.93
2017-12-30T11:18:36.623Z,73.31
2017-12-30T11:19:38.541Z,73.60
2017-12-30T11:20:40.349Z,73.79
2017-12-30T11:21:42.234Z,73.88
2017-12-30T11:22:44.040Z,73.79
2017-12-30T11:23:45.869Z,74.26
2017-12-30T11:24:47.749Z,74.35
2017-12-30T11:25:49.632Z,74.54
2017-12-30T11:26:51.487Z,74.64
2017-12-30T11:28:05.654Z,74.07
2017-12-30T11:29:07.535Z,73.88
2017-12-30T11:30:09.406Z,74.16
2017-12-30T11:31:11.318Z,74.54
2017-12-30T11:32:13.124Z,74.54
2017-12-30T11:33:14.960Z,74.54
2017-12-30T11:34:16.870Z,74.64
2017-12-30T11:35:18.735Z,74.35
2017-12-30T11:36:20.601Z,75.02
2017-12-30T11:37:34.743Z,74.73
2017-12-30T11:38:36.637Z,75.21
2017-12-30T11:39:38.532Z,75.02
2017-12-30T11:40:40.475Z,74.83
2017-12-30T11:41:42.337Z,75.31
2017-12-30T11:42:44.199Z,74.83
2017-12-30T11:43:46.108Z,75.02
2017-12-30T11:44:48.030Z,75.49
2017-12-30T11:45:49.978Z,75.31
2017-12-30T11:47:04.216Z,75.87
2017-12-30T11:48:06.155Z,75.78
2017-12-30T11:49:08.151Z,75.96
2017-12-30T11:50:10.137Z,76.06
2017-12-30T11:51:12.015Z,75.96
2017-12-30T11:52:13.906Z,75.68
2017-12-30T11:53:15.828Z,75.78
2017-12-30T11:54:17.714Z,75.59
2017-12-30T11:55:19.602Z,75.78
2017-12-30T11:56:33.779Z,76.06
2017-12-30T11:57:35.714Z,76.34
2017-12-30T11:58:37.656Z,77.01
2017-12-30T11:59:39.556Z,76.73
2017-12-30T12:00:41.386Z,76.92
2017-12-30T12:01:43.215Z,77.11
2017-12-30T12:02:45.095Z,77.29
2017-12-30T12:03:46.960Z,77.20
2017-12-30T12:04:48.861Z,77.77
2017-12-30T12:06:03.036Z,77.67
2017-12-30T12:07:04.960Z,77.48
2017-12-30T12:08:07.334Z,77.20
2017-12-30T12:09:09.174Z,77.39
2017-12-30T12:10:11.058Z,77.11
2017-12-30T12:11:12.922Z,76.92
2017-12-30T12:12:14.828Z,77.20
2017-12-30T12:13:16.731Z,77.39
2017-12-30T12:14:18.622Z,77.29
2017-12-30T12:15:32.789Z,77.39
2017-12-30T12:16:34.620Z,77.39
2017-12-30T12:17:36.503Z,77.20
2017-12-30T12:18:38.400Z,77.48
2017-12-30T12:19:40.288Z,77.67
2017-12-30T12:20:42.248Z,77.48
2017-12-30T12:21:44.220Z,77.58
2017-12-30T12:22:46.076Z,77.67
2017-12-30T12:23:47.958Z,77.96
2017-12-30T12:25:02.160Z,78.43
2017-12-30T12:26:04.062Z,78.53
2017-12-30T12:27:05.982Z,79.19
2017-12-30T12:28:07.873Z,78.87
2017-12-30T12:29:09.700Z,79.06
2017-12-30T12:30:11.524Z,79.06
2017-12-30T12:31:13.402Z,79.06
2017-12-30T12:32:15.265Z,78.96
2017-12-30T12:33:17.120Z,79.44
2017-12-30T12:34:31.261Z,79.82
2017-12-30T12:35:33.159Z,79.82
2017-12-30T12:36:35.023Z,80.19
2017-12-30T12:37:36.892Z,79.91
2017-12-30T12:38:38.720Z,80.19
2017-12-30T12:39:40.523Z,80.19
2017-12-30T12:40:42.410Z,80.19
2017-12-30T12:41:44.278Z,80.19
2017-12-30T12:42:46.168Z,80.19
2017-12-30T12:44:00.330Z,80.19
2017-12-30T12:45:02.222Z,80.38
2017-12-30T12:46:04.087Z,80.29
2017-12-30T12:47:05.953Z,80.29
2017-12-30T12:48:07.759Z,80.76
2017-12-30T12:49:09.584Z,80.29
2017-12-30T12:50:11.458Z,80.76
2017-12-30T12:51:13.342Z,80.38
2017-12-30T12:52:15.307Z,80.14
2017-12-30T12:53:29.560Z,80.04
2017-12-30T12:54:31.445Z,79.38
2017-12-30T12:55:33.318Z,78.72
2017-12-30T12:56:35.188Z,78.72
2017-12-30T12:57:37.036Z,78.38
2017-12-30T12:58:38.839Z,77.62
2017-12-30T12:59:40.706Z,77.81
2017-12-30T13:00:42.602Z,77.14
2017-12-30T13:01:44.495Z,76.76
2017-12-30T13:02:58.660Z,75.91
2017-12-30T13:04:00.568Z,75.81
2017-12-30T13:05:02.417Z,75.62
2017-12-30T13:06:04.309Z,75.62
2017-12-30T13:07:06.121Z,75.62
2017-12-30T13:08:07.928Z,75.81
2017-12-30T13:09:09.813Z,75.91
2017-12-30T13:10:11.704Z,75.91
2017-12-30T13:11:13.600Z,75.62
2017-12-30T13:12:27.756Z,75.81
2017-12-30T13:13:29.633Z,75.91
2017-12-30T13:14:31.526Z,75.91
2017-12-30T13:15:33.390Z,76.57
2017-12-30T13:16:35.196Z,76.67
2017-12-30T13:17:37.024Z,77.24
2017-12-30T13:18:38.909Z,76.95
2017-12-30T13:19:40.779Z,76.76
2017-12-30T13:20:42.667Z,77.01
2017-12-30T13:21:56.843Z,77.39
2017-12-30T13:22:58.698Z,77.20
2017-12-30T13:24:00.585Z,77.20
2017-12-30T13:25:02.459Z,77.29
2017-12-30T13:26:04.292Z,77.39
2017-12-30T13:27:06.112Z,77.39
2017-12-30T13:28:07.992Z,78.24
2017-12-30T13:29:09.883Z,78.62
2017-12-30T13:30:11.775Z,79.28
2017-12-30T13:31:25.931Z,79.10
2017-12-30T13:32:27.801Z,78.91
2017-12-30T13:33:29.697Z,79.47
2017-12-30T13:34:31.596Z,79.10